Time;durP1;ratioP1;P1;durP2;ratioP2;P2;SDS_P1;SDS_P2;PMS_P1;PMS_P2;Temp;Humidity;BMP_temperature;BMP_pressure;BME280_temperature;BME280_humidity;BME280_pressure;Samples;Min_cycle;Max_cycle;Signal;HPM_P1;HPM_P2
2022/08/25 00:02:18;;;;;;;7.43;5.83;;;;;;;20.73;81.60;101498.09;5051488;28;20025;-85
2022/08/25 00:04:44;;;;;;;7.50;5.97;;;;;;;20.71;81.32;101503.03;5051523;28;20366;-85
2022/08/25 00:07:09;;;;;;;6.90;6.30;;;;;;;20.63;81.55;101498.34;5037478;28;20037;-85
2022/08/25 00:09:35;;;;;;;8.53;6.13;;;;;;;20.62;81.58;101506.81;5036681;28;20033;-84
2022/08/25 00:12:01;;;;;;;6.60;5.93;;;;;;;20.58;82.48;101499.25;5050209;28;20033;-85
2022/08/25 00:14:31;;;;;;;7.37;6.10;;;;;;;20.61;82.21;101502.47;5051192;28;20628;-85
2022/08/25 00:16:56;;;;;;;6.63;5.90;;;;;;;20.51;82.55;101509.81;5050105;28;20428;-85
2022/08/25 00:19:26;;;;;;;8.63;6.00;;;;;;;20.47;82.70;101503.34;5050987;28;20063;-85
2022/08/25 00:21:51;;;;;;;7.47;5.70;;;;;;;20.42;83.09;101501.56;5050613;28;20272;-85
2022/08/25 00:24:19;;;;;;;6.68;5.65;;;;;;;20.39;82.89;101502.19;5047901;28;20116;-85
2022/08/25 00:26:47;;;;;;;10.10;5.97;;;;;;;20.37;83.67;101498.13;5033136;28;20502;-85
2022/08/25 00:29:13;;;;;;;8.50;6.30;;;;;;;20.36;84.04;101497.34;5050789;28;20075;-85
2022/08/25 00:31:40;;;;;;;8.30;6.30;;;;;;;20.31;83.33;101502.91;5050257;28;20025;-85
2022/08/25 00:34:13;;;;;;;6.95;6.25;;;;;;;20.20;83.73;101496.09;5049200;28;20548;-85
2022/08/25 00:36:39;;;;;;;8.88;6.70;;;;;;;20.23;84.38;101503.66;5040770;28;20091;-85
2022/08/25 00:39:07;;;;;;;6.25;5.75;;;;;;;20.18;84.36;101511.91;5043831;28;20413;-85
2022/08/25 00:41:34;;;;;;;9.27;6.50;;;;;;;20.12;84.71;101512.03;5047373;28;20036;-85
2022/08/25 00:44:03;;;;;;;8.80;6.07;;;;;;;20.03;85.24;101503.00;5048625;28;20033;-86
2022/08/25 00:46:36;;;;;;;9.03;6.33;;;;;;;20.00;86.09;101511.75;5031173;28;20295;-85
2022/08/25 00:49:12;;;;;;;6.68;6.07;;;;;;;19.94;84.80;101496.66;5049643;28;20033;-85
2022/08/25 00:51:42;;;;;;;12.80;6.72;;;;;;;19.97;86.04;101504.22;5047022;28;20051;-84
2022/08/25 00:54:11;;;;;;;7.57;6.65;;;;;;;19.91;86.21;101514.41;5042094;28;20044;-86
2022/08/25 00:56:37;;;;;;;7.10;6.47;;;;;;;19.89;85.93;101505.72;5048474;28;20032;-85
2022/08/25 00:59:03;;;;;;;9.23;6.37;;;;;;;19.88;85.84;101512.28;5048897;28;20039;-85
2022/08/25 01:01:29;;;;;;;8.73;6.90;;;;;;;19.82;85.71;101505.31;5048336;28;20037;-85
2022/08/25 01:03:55;;;;;;;9.77;7.00;;;;;;;19.73;86.12;101502.50;5048784;28;20037;-85
2022/08/25 01:06:21;;;;;;;8.02;7.00;;;;;;;19.71;86.67;101504.72;5046166;28;20029;-86
2022/08/25 01:08:46;;;;;;;8.70;7.30;;;;;;;19.64;87.51;101493.47;5048888;28;20388;-85
2022/08/25 01:11:12;;;;;;;7.37;6.67;;;;;;;19.64;87.17;101498.88;5052758;28;20025;-85
2022/08/25 01:13:44;;;;;;;8.68;6.25;;;;;;;19.60;86.58;101504.13;5053050;28;20020;-85
2022/08/25 01:16:12;;;;;;;8.10;7.30;;;;;;;19.57;87.86;101498.47;5033480;28;20639;-85
2022/08/25 01:18:48;;;;;;;8.60;7.23;;;;;;;19.47;87.08;101492.16;5054424;28;20330;-85
2022/08/25 01:21:13;;;;;;;8.32;7.13;;;;;;;19.49;88.06;101497.28;5052748;28;20029;-85
2022/08/25 01:23:38;;;;;;;12.00;7.85;;;;;;;19.42;88.45;101494.16;5034460;28;20036;-85
2022/08/25 01:26:14;;;;;;;9.17;7.10;;;;;;;19.38;87.92;101488.50;5034430;28;20024;-85
2022/08/25 01:29:19;;;;;;;9.15;8.25;;;;;;;19.35;88.23;101500.00;5034690;28;20040;-85
2022/08/25 01:31:28;;;;;;;11.27;8.55;;;;;;;19.26;89.04;101489.03;5043333;28;20090;-85
2022/08/25 01:33:53;;;;;;;10.43;9.20;;;;;;;19.22;89.07;101496.97;5053686;28;20017;-85
2022/08/25 01:36:20;;;;;;;10.70;8.93;;;;;;;19.30;88.38;101502.81;5063441;28;20021;-85
2022/08/25 01:38:46;;;;;;;10.45;9.32;;;;;;;19.25;88.67;101492.03;5054383;28;20025;-85
2022/08/25 01:41:11;;;;;;;11.70;9.50;;;;;;;19.26;89.22;101501.81;5053035;28;20029;-85
2022/08/25 01:43:37;;;;;;;10.27;9.27;;;;;;;19.23;88.97;101505.94;5053878;28;20459;-85
2022/08/25 01:46:03;;;;;;;12.23;9.68;;;;;;;19.25;89.00;101509.16;5054001;28;20384;-85
2022/08/25 01:48:28;;;;;;;13.13;10.60;;;;;;;19.19;89.33;101507.63;5041161;28;20056;-86
2022/08/25 01:50:54;;;;;;;11.80;10.60;;;;;;;19.14;89.27;101502.28;5045964;28;20116;-85
2022/08/25 01:53:28;;;;;;;11.47;10.27;;;;;;;19.18;89.08;101506.03;5053223;28;20021;-85
2022/08/25 01:56:01;;;;;;;15.73;10.57;;;;;;;19.10;88.81;101501.28;5052354;28;20086;-85
2022/08/25 01:58:36;;;;;;;11.83;10.17;;;;;;;19.12;88.69;101502.59;5053757;28;20032;-85
2022/08/25 02:01:05;;;;;;;10.80;9.70;;;;;;;19.09;88.92;101500.47;5052049;28;20268;-85
2022/08/25 02:03:30;;;;;;;12.27;9.95;;;;;;;19.04;88.33;101504.09;5052641;28;20025;-85
2022/08/25 02:05:57;;;;;;;10.15;9.18;;;;;;;19.04;88.27;101504.09;5039275;28;20032;-85
2022/08/25 02:08:24;;;;;;;13.35;9.05;;;;;;;18.92;88.43;101493.69;5033136;28;20436;-85
2022/08/25 02:10:51;;;;;;;10.73;9.50;;;;;;;18.86;89.08;101492.16;5033256;28;20083;-85
2022/08/25 02:13:17;;;;;;;10.27;9.07;;;;;;;18.85;88.67;101493.25;5033441;28;20056;-86
2022/08/25 02:15:50;;;;;;;10.40;9.07;;;;;;;18.85;88.11;101495.97;5051774;28;20786;-85
2022/08/25 02:18:17;;;;;;;14.20;9.50;;;;;;;18.81;88.11;101492.22;5052247;28;20530;-85
2022/08/25 02:20:43;;;;;;;13.82;8.98;;;;;;;18.76;88.03;101497.75;5051506;28;20029;-85
2022/08/25 02:23:09;;;;;;;11.35;9.00;;;;;;;18.74;88.11;101491.81;5048033;28;20035;-85
2022/08/25 02:25:36;;;;;;;10.35;9.27;;;;;;;18.69;88.14;101491.91;5053125;28;20113;-85
2022/08/25 02:28:02;;;;;;;9.60;8.63;;;;;;;18.70;88.22;101499.75;5053173;28;20024;-85
2022/08/25 02:30:27;;;;;;;15.00;9.47;;;;;;;18.62;88.81;101501.22;5051987;28;20082;-85
2022/08/25 02:32:53;;;;;;;10.82;9.18;;;;;;;18.62;88.69;101506.63;5041422;28;20033;-85
2022/08/25 02:35:19;;;;;;;11.10;9.17;;;;;;;18.61;88.96;101499.63;5015581;28;20546;-85
2022/08/25 02:37:44;;;;;;;12.88;9.52;;;;;;;18.56;88.68;101505.13;5032973;28;20525;-85
2022/08/25 02:40:10;;;;;;;10.93;9.43;;;;;;;18.47;89.24;101487.88;5034096;28;20108;-85
2022/08/25 02:42:35;;;;;;;12.57;8.90;;;;;;;18.43;88.41;101478.75;5046891;28;20036;-85
2022/08/25 02:45:00;;;;;;;13.20;9.05;;;;;;;18.45;88.42;101495.50;5052695;28;20025;-85
2022/08/25 02:47:26;;;;;;;11.17;9.40;;;;;;;18.41;88.38;101497.22;5038804;28;20026;-85
2022/08/25 02:49:51;;;;;;;10.73;9.63;;;;;;;18.34;88.77;101491.34;5052238;28;20060;-85
2022/08/25 02:52:17;;;;;;;10.87;9.47;;;;;;;18.41;88.58;101498.03;5053151;28;20086;-86
2022/08/25 02:54:43;;;;;;;11.30;10.00;;;;;;;18.35;89.18;101491.06;5052939;28;20029;-85
2022/08/25 02:57:10;;;;;;;10.57;9.45;;;;;;;18.31;88.72;101477.28;5045380;28;20025;-85
2022/08/25 02:59:36;;;;;;;11.85;9.50;;;;;;;18.33;88.52;101479.72;5034489;28;20112;-85
2022/08/25 03:02:02;;;;;;;12.33;9.30;;;;;;;18.35;88.23;101485.63;5034486;28;20118;-85
2022/08/25 03:04:27;;;;;;;11.38;9.02;;;;;;;18.31;87.55;101480.00;5032749;28;20029;-85
2022/08/25 03:06:53;;;;;;;12.57;8.53;;;;;;;18.30;88.06;101483.81;5032479;28;20032;-85
2022/08/25 03:09:18;;;;;;;11.80;9.50;;;;;;;18.25;87.69;101475.75;5032676;28;20452;-85
2022/08/25 03:11:44;;;;;;;10.80;9.13;;;;;;;18.23;87.34;101480.66;5032110;28;20500;-85
2022/08/25 03:14:10;;;;;;;12.25;9.65;;;;;;;18.23;87.47;101483.38;5026572;28;20400;-85
2022/08/25 03:16:36;;;;;;;10.40;8.47;;;;;;;18.17;87.36;101477.19;5044139;28;20021;-85
2022/08/25 03:19:02;;;;;;;10.85;8.88;;;;;;;18.25;87.01;101474.94;5052332;28;20437;-85
2022/08/25 03:21:28;;;;;;;11.15;9.05;;;;;;;18.18;86.92;101469.88;5051932;28;20025;-85
2022/08/25 03:23:55;;;;;;;11.55;8.52;;;;;;;18.16;87.07;101472.91;5052470;28;20060;-85
2022/08/25 03:29:05;;;;;;;13.23;8.57;;;;;;;18.08;86.92;101464.59;5051295;28;20396;-85
2022/08/25 03:31:32;;;;;;;14.90;9.23;;;;;;;18.02;86.45;101450.31;5033110;28;20037;-86
2022/08/25 03:33:58;;;;;;;14.82;9.35;;;;;;;18.06;86.81;101458.69;5036183;28;20098;-85
2022/08/25 03:36:24;;;;;;;10.68;9.00;;;;;;;17.99;86.43;101457.13;5052099;28;20374;-85
2022/08/25 03:38:51;;;;;;;11.87;9.53;;;;;;;18.00;86.84;101460.66;5051807;28;20033;-85
2022/08/25 03:41:28;;;;;;;13.88;9.85;;;;;;;17.98;85.95;101455.53;5050504;28;20025;-85
2022/08/25 03:43:54;;;;;;;13.75;9.40;;;;;;;17.96;85.57;101449.56;5049954;28;20071;-85
2022/08/25 03:46:30;;;;;;;11.88;9.88;;;;;;;18.00;85.25;101455.22;5050723;28;20035;-85
2022/08/25 03:48:56;;;;;;;13.70;9.15;;;;;;;18.01;85.69;101457.66;5031799;28;20032;-86
2022/08/25 03:51:36;;;;;;;12.73;9.05;;;;;;;17.97;84.21;101455.81;5013524;28;20489;-86
2022/08/25 03:54:03;;;;;;;12.30;9.13;;;;;;;18.01;84.63;101446.00;5043300;28;20374;-85
2022/08/25 03:56:29;;;;;;;11.55;8.80;;;;;;;18.03;83.77;101451.13;5051450;28;20021;-85
2022/08/25 03:58:55;;;;;;;13.25;8.38;;;;;;;18.03;82.94;101448.41;5050849;28;20121;-86
2022/08/25 04:01:21;;;;;;;13.77;8.63;;;;;;;17.92;82.97;101443.09;5049029;28;20524;-83
2022/08/25 04:03:47;;;;;;;9.63;8.40;;;;;;;17.96;82.45;101441.41;5048418;28;20032;-85
2022/08/25 04:06:14;;;;;;;10.65;7.63;;;;;;;18.01;82.56;101437.84;5036123;28;20037;-82
2022/08/25 04:08:39;;;;;;;13.40;7.77;;;;;;;18.00;81.82;101434.34;5051341;28;20033;-83
2022/08/25 04:11:11;;;;;;;13.80;8.30;;;;;;;17.94;81.99;101424.63;5050790;28;20274;-83
2022/08/25 04:13:37;;;;;;;8.88;7.25;;;;;;;17.97;82.27;101443.03;5049626;28;20036;-83
2022/08/25 04:16:11;;;;;;;13.37;7.80;;;;;;;17.92;82.19;101431.47;5050487;28;20032;-84
2022/08/25 04:18:37;;;;;;;12.35;8.27;;;;;;;17.86;82.16;101433.44;5050965;28;20421;-83
2022/08/25 04:21:04;;;;;;;8.20;7.28;;;;;;;17.85;82.53;101440.75;5049145;28;20025;-83
2022/08/25 04:23:30;;;;;;;8.07;6.80;;;;;;;17.79;82.47;101439.22;5049481;28;20021;-83
2022/08/25 04:25:56;;;;;;;9.25;7.80;;;;;;;17.81;82.03;101437.00;5049866;28;20028;-82
2022/08/25 04:28:21;;;;;;;10.20;7.00;;;;;;;17.80;82.35;101431.91;5050865;28;20021;-83
2022/08/25 04:30:46;;;;;;;9.40;7.18;;;;;;;17.73;82.27;101434.97;5050202;28;20029;-85
2022/08/25 04:33:12;;;;;;;12.27;7.30;;;;;;;17.68;81.94;101433.13;5048203;28;20828;-83
2022/08/25 04:35:38;;;;;;;12.63;7.00;;;;;;;17.70;82.58;101439.06;5030824;28;20021;-82
2022/08/25 04:38:03;;;;;;;11.52;7.10;;;;;;;17.65;82.42;101428.28;5031649;28;20065;-82
2022/08/25 04:40:28;;;;;;;11.63;7.10;;;;;;;17.59;81.89;101424.03;5038152;28;20493;-83
2022/08/25 04:42:54;;;;;;;9.93;6.53;;;;;;;17.58;81.83;101425.13;5050741;28;20018;-84
2022/08/25 04:45:19;;;;;;;9.00;6.70;;;;;;;17.60;82.73;101420.22;5049977;28;20539;-81
2022/08/25 04:47:44;;;;;;;8.17;6.47;;;;;;;17.59;82.41;101418.59;5045563;28;20049;-80
2022/08/25 04:50:09;;;;;;;11.00;6.67;;;;;;;17.57;82.47;101415.38;5037453;28;20033;-80
2022/08/25 04:52:36;;;;;;;9.95;7.10;;;;;;;17.53;81.69;101423.28;5050716;28;20108;-80
2022/08/25 04:55:02;;;;;;;11.43;6.93;;;;;;;17.63;81.85;101421.53;5050419;28;20465;-80
2022/08/25 04:57:29;;;;;;;9.32;6.63;;;;;;;17.66;82.06;101423.66;5050547;28;20071;-80
2022/08/25 04:59:54;;;;;;;8.90;6.60;;;;;;;17.66;81.20;101420.97;5050027;28;20025;-81
2022/08/25 05:02:20;;;;;;;9.13;6.50;;;;;;;17.67;79.72;101423.41;5046276;28;20116;-80
2022/08/25 05:04:45;;;;;;;10.38;6.40;;;;;;;17.78;81.05;101418.66;5049682;28;20032;-78
2022/08/25 05:07:11;;;;;;;11.13;6.10;;;;;;;17.78;78.57;101423.25;5042821;28;20112;-78
2022/08/25 05:09:37;;;;;;;10.45;6.10;;;;;;;17.86;79.02;101431.53;5030510;28;20025;-77
2022/08/25 05:12:03;;;;;;;12.40;5.90;;;;;;;17.90;78.07;101428.22;5029815;28;20048;-78
2022/08/25 05:14:29;;;;;;;10.82;5.85;;;;;;;17.97;77.31;101434.91;5030591;28;20394;-80
2022/08/25 05:16:55;;;;;;;7.60;5.43;;;;;;;18.02;76.86;101425.91;5019218;28;20090;-80
2022/08/25 05:19:22;;;;;;;14.50;5.53;;;;;;;18.13;75.49;101437.41;5031482;28;20480;-81
2022/08/25 05:21:47;;;;;;;11.23;5.80;;;;;;;18.19;74.90;101436.25;5039878;28;20036;-82
2022/08/25 05:24:13;;;;;;;9.83;5.50;;;;;;;18.28;73.99;101445.31;5030354;28;20276;-81
2022/08/25 05:26:38;;;;;;;7.57;5.10;;;;;;;18.34;75.01;101448.78;5036529;28;20025;-81
2022/08/25 05:29:04;;;;;;;12.50;5.03;;;;;;;18.43;73.73;101451.63;5047104;28;20449;-81
2022/08/25 05:31:31;;;;;;;10.13;5.00;;;;;;;18.51;73.19;101442.78;5040295;28;20037;-81
2022/08/25 05:33:58;;;;;;;11.55;5.20;;;;;;;18.58;72.79;101445.94;5043085;28;20155;-81
2022/08/25 05:36:26;;;;;;;9.38;4.82;;;;;;;18.70;72.59;101450.91;5045450;28;20028;-81
2022/08/25 05:38:52;;;;;;;7.45;4.53;;;;;;;18.81;72.19;101454.22;5029443;28;20477;-81
2022/08/25 05:41:21;;;;;;;9.43;5.32;;;;;;;18.87;71.54;101450.31;5037866;28;20035;-81
2022/08/25 05:43:48;;;;;;;9.50;5.40;;;;;;;18.98;71.91;101450.97;5046568;28;20453;-81
2022/08/25 05:46:17;;;;;;;7.23;4.83;;;;;;;19.04;70.88;101455.22;5049330;28;20298;-81
2022/08/25 05:48:43;;;;;;;9.40;5.20;;;;;;;19.11;70.70;101454.81;5047448;28;20040;-81
2022/08/25 05:51:10;;;;;;;10.75;5.35;;;;;;;19.20;70.41;101458.44;5046149;28;20025;-81
2022/08/25 05:53:36;;;;;;;12.17;4.83;;;;;;;19.26;70.16;101459.16;5048778;28;20104;-81
2022/08/25 05:56:02;;;;;;;9.80;5.57;;;;;;;19.33;69.45;101456.81;5041031;28;21023;-81
2022/08/25 05:58:28;;;;;;;12.27;5.50;;;;;;;19.45;69.27;101463.66;5045949;28;20036;-81
2022/08/25 06:00:55;;;;;;;8.93;5.85;;;;;;;19.55;67.68;101457.19;5048951;28;20461;-81
2022/08/25 06:03:20;;;;;;;10.15;5.82;;;;;;;19.62;67.50;101458.44;5051119;28;20092;-80
2022/08/25 06:05:46;;;;;;;9.03;5.63;;;;;;;19.75;66.43;101467.66;5052660;28;20478;-81
2022/08/25 06:08:12;;;;;;;9.95;5.88;;;;;;;19.84;66.47;101475.91;5051851;28;20033;-80
2022/08/25 06:10:37;;;;;;;11.05;6.20;;;;;;;19.93;66.20;101470.56;5051231;28;20033;-80
2022/08/25 06:13:03;;;;;;;12.10;5.77;;;;;;;19.99;65.48;101471.28;5050031;28;20025;-81
2022/08/25 06:15:29;;;;;;;8.13;5.05;;;;;;;20.07;65.56;101473.25;5040105;28;20022;-80
2022/08/25 06:17:57;;;;;;;8.20;5.30;;;;;;;20.12;65.44;101467.72;5042973;28;20025;-79
2022/08/25 06:20:25;;;;;;;12.98;5.72;;;;;;;20.20;65.40;101466.16;5024963;28;20033;-80
2022/08/25 06:22:51;;;;;;;8.65;5.10;;;;;;;20.25;65.19;101464.13;5052050;28;20506;-79
2022/08/25 06:25:19;;;;;;;9.10;5.60;;;;;;;20.33;65.02;101465.31;5049060;28;20037;-82
2022/08/25 06:27:45;;;;;;;10.02;5.60;;;;;;;20.42;64.49;101466.19;5045394;28;20029;-80
2022/08/25 06:30:14;;;;;;;7.47;5.00;;;;;;;20.50;64.06;101470.09;5050610;28;20055;-80
2022/08/25 06:32:41;;;;;;;9.90;5.10;;;;;;;20.60;63.32;101469.03;5044812;28;20097;-79
2022/08/25 06:35:11;;;;;;;8.00;5.30;;;;;;;20.67;63.00;101455.75;5046599;28;20702;-78
2022/08/25 06:37:37;;;;;;;9.15;4.72;;;;;;;20.78;62.89;101475.41;5035115;28;20043;-78
2022/08/25 06:40:05;;;;;;;9.30;5.15;;;;;;;20.87;62.91;101464.56;5051126;28;20508;-80
2022/08/25 06:42:30;;;;;;;5.93;4.90;;;;;;;20.98;62.17;101465.91;5052385;28;20512;-80
2022/08/25 06:44:55;;;;;;;6.73;4.53;;;;;;;21.07;62.20;101470.56;5043624;28;20029;-80
2022/08/25 06:47:21;;;;;;;11.48;5.00;;;;;;;21.18;62.06;101471.91;5052255;28;20017;-79
2022/08/25 06:49:46;;;;;;;8.37;5.40;;;;;;;21.25;61.29;101463.28;5048700;28;20032;-79
2022/08/25 06:52:12;;;;;;;11.23;4.63;;;;;;;21.36;61.19;101471.97;5043769;28;20108;-78
2022/08/25 06:54:38;;;;;;;10.93;4.95;;;;;;;21.40;61.20;101471.03;5043045;28;20104;-79
2022/08/25 06:57:04;;;;;;;6.23;4.70;;;;;;;21.50;60.81;101469.94;5044905;28;20116;-80
2022/08/25 06:59:29;;;;;;;15.05;5.10;;;;;;;21.66;60.13;101470.31;5051471;28;20090;-79
2022/08/25 07:01:55;;;;;;;11.53;4.93;;;;;;;21.74;60.25;101461.34;5051219;28;20025;-80
2022/08/25 07:04:20;;;;;;;8.60;4.80;;;;;;;21.90;59.77;101467.16;5050431;28;20117;-80
2022/08/25 07:06:46;;;;;;;11.50;4.60;;;;;;;22.00;58.68;101466.00;5050361;28;20371;-80
2022/08/25 07:09:12;;;;;;;14.25;4.78;;;;;;;22.11;58.31;101458.31;5050465;28;20060;-80
2022/08/25 07:11:39;;;;;;;10.20;4.37;;;;;;;22.26;57.75;101470.66;5033474;28;20116;-80
2022/08/25 07:14:07;;;;;;;11.60;4.87;;;;;;;22.39;57.83;101463.44;5047636;28;20291;-81
2022/08/25 07:16:32;;;;;;;10.68;4.70;;;;;;;22.50;57.11;101464.72;5043812;28;20139;-81
2022/08/25 07:18:59;;;;;;;10.40;4.72;;;;;;;22.61;56.44;101459.72;5049815;28;20128;-81
2022/08/25 07:21:27;;;;;;;6.80;4.43;;;;;;;22.69;55.84;101450.72;5049610;28;20499;-81
2022/08/25 07:23:53;;;;;;;13.20;4.57;;;;;;;22.79;55.24;101456.94;5047418;28;20024;-80
2022/08/25 07:26:22;;;;;;;8.57;4.27;;;;;;;22.89;55.47;101458.53;5050163;28;20291;-80
2022/08/25 07:28:48;;;;;;;8.13;4.40;;;;;;;22.91;54.79;101448.06;5050287;28;20029;-81
2022/08/25 07:31:14;;;;;;;10.50;4.55;;;;;;;22.97;55.47;101463.16;5049653;28;20040;-81
2022/08/25 07:35:13;;;;;;;8.02;4.35;;;;;;;23.01;55.42;101464.09;5045997;28;20097;-80
2022/08/25 07:36:25;;;;;;;6.88;4.40;;;;;;;23.10;55.75;101458.59;5044682;28;20396;-81
2022/08/25 07:38:51;;;;;;;7.63;4.07;;;;;;;23.15;55.70;101447.50;5049126;28;20033;-80
2022/08/25 07:41:16;;;;;;;11.50;4.53;;;;;;;23.28;55.64;101448.41;5047348;28;20037;-78
2022/08/25 07:43:42;;;;;;;14.17;4.23;;;;;;;23.36;55.23;101438.56;5047074;28;20025;-80
2022/08/25 07:46:07;;;;;;;10.80;4.20;;;;;;;23.44;53.68;101435.78;5049873;28;20033;-80
2022/08/25 07:48:32;;;;;;;8.93;4.10;;;;;;;23.55;52.87;101440.88;5036455;28;20040;-80
2022/08/25 07:50:58;;;;;;;7.37;3.40;;;;;;;23.65;52.74;101445.94;5030831;28;20144;-81
2022/08/25 07:53:24;;;;;;;11.00;3.60;;;;;;;23.76;52.20;101451.81;5050539;28;20154;-80
2022/08/25 07:55:49;;;;;;;12.20;3.95;;;;;;;23.92;52.23;101449.28;5050413;28;20024;-79
2022/08/25 07:58:15;;;;;;;6.00;3.53;;;;;;;24.05;52.10;101450.16;5050611;28;20032;-80
2022/08/25 08:00:40;;;;;;;8.48;3.83;;;;;;;24.15;51.06;101436.09;5048753;28;20025;-80
2022/08/25 08:03:08;;;;;;;12.27;3.53;;;;;;;24.25;51.09;101445.00;5049432;28;20021;-80
2022/08/25 08:05:33;;;;;;;10.05;3.80;;;;;;;24.44;50.52;101444.50;5048942;28;20029;-80
2022/08/25 08:08:01;;;;;;;8.40;3.37;;;;;;;24.63;50.45;101447.53;5050534;28;20174;-80
2022/08/25 08:10:26;;;;;;;6.82;2.83;;;;;;;24.70;49.64;101436.03;5050181;28;20060;-80
2022/08/25 08:12:52;;;;;;;10.00;3.13;;;;;;;24.84;48.51;101438.44;5050290;28;20060;-79
2022/08/25 08:15:18;;;;;;;7.13;3.08;;;;;;;25.00;49.10;101440.53;5048933;28;20092;-80
2022/08/25 08:17:44;;;;;;;7.25;3.60;;;;;;;25.21;48.46;101434.91;5050356;28;20421;-80
2022/08/25 08:20:11;;;;;;;5.50;3.17;;;;;;;25.37;48.46;101427.59;5047147;28;20039;-80
2022/08/25 08:22:39;;;;;;;7.47;3.55;;;;;;;25.55;48.09;101432.84;5049629;28;20699;-80
2022/08/25 08:25:06;;;;;;;6.33;2.70;;;;;;;25.70;47.71;101437.59;5049932;28;20053;-80
2022/08/25 08:27:31;;;;;;;7.60;3.53;;;;;;;25.88;47.04;101447.53;5050294;28;20314;-80
2022/08/25 08:29:56;;;;;;;5.13;3.15;;;;;;;25.99;45.74;101441.19;5048279;28;20057;-80
2022/08/25 08:32:22;;;;;;;6.90;3.23;;;;;;;26.09;46.30;101442.63;5049511;28;20029;-79
2022/08/25 08:34:47;;;;;;;6.00;3.23;;;;;;;26.24;46.14;101440.31;5049082;28;20033;-80
2022/08/25 08:37:13;;;;;;;6.47;3.08;;;;;;;26.35;46.31;101440.59;5050517;28;20025;-80
2022/08/25 08:39:39;;;;;;;7.67;3.17;;;;;;;26.48;45.95;101433.88;5050264;28;20056;-79
2022/08/25 08:42:33;;;;;;;4.97;3.40;;;;;;;26.60;47.19;101436.53;5049458;28;20295;-80
2022/08/25 08:45:13;;;;;;;12.73;3.67;;;;;;;26.70;46.30;101429.72;5048986;28;20033;-80
2022/08/25 08:47:54;;;;;;;6.93;3.28;;;;;;;26.86;45.95;101426.19;5049275;28;20099;-80
2022/08/25 08:50:19;;;;;;;10.67;3.50;;;;;;;26.98;45.99;101433.56;5049668;28;20101;-80
2022/08/25 08:52:52;;;;;;;5.13;3.50;;;;;;;27.11;44.61;101431.50;5049951;28;20311;-80
2022/08/25 08:55:56;;;;;;;9.83;3.37;;;;;;;27.26;45.50;101429.91;5050130;28;20025;-80
2022/08/25 08:58:23;;;;;;;8.60;3.70;;;;;;;27.35;44.36;101434.03;5048952;28;20292;-80
2022/08/25 09:00:53;;;;;;;7.90;3.22;;;;;;;27.35;44.03;101424.97;5049303;28;20029;-80
2022/08/25 09:03:36;;;;;;;6.38;3.50;;;;;;;27.44;44.75;101430.28;5049128;28;20108;-80
2022/08/25 09:06:07;;;;;;;4.90;3.70;;;;;;;27.53;42.89;101422.66;5049368;28;20028;-80
2022/08/25 09:08:34;;;;;;;9.73;3.85;;;;;;;27.60;42.69;101430.28;5049453;28;20028;-80
2022/08/25 09:11:22;;;;;;;5.18;3.35;;;;;;;27.70;43.29;101428.91;5041018;28;20061;-79
2022/08/25 09:14:09;;;;;;;8.57;3.40;;;;;;;27.93;43.58;101428.97;5046354;28;20017;-80
2022/08/25 09:16:57;;;;;;;8.55;3.35;;;;;;;28.12;43.97;101428.16;5047949;28;20052;-81
2022/08/25 09:20:06;;;;;;;12.07;3.53;;;;;;;28.35;43.59;101428.22;5049102;28;20424;-82
2022/08/25 09:22:51;;;;;;;6.27;3.57;;;;;;;28.51;42.50;101428.09;5032001;28;20066;-81
2022/08/25 09:25:29;;;;;;;10.90;3.80;;;;;;;28.59;41.28;101425.47;5049574;28;20848;-81
2022/08/25 09:28:15;;;;;;;9.10;3.30;;;;;;;28.74;41.99;101419.06;5048265;28;20033;-81
2022/08/25 09:30:52;;;;;;;45.20;3.92;;;;;;;28.83;40.64;101421.56;5047777;28;20048;-82
2022/08/25 09:33:23;;;;;;;6.97;3.30;;;;;;;28.99;39.57;101415.91;5053325;28;20040;-82
2022/08/25 09:35:50;;;;;;;4.78;3.25;;;;;;;29.21;40.38;101424.50;5050723;28;20048;-83
2022/08/25 09:38:15;;;;;;;7.93;3.03;;;;;;;29.29;38.25;101426.19;5052230;28;20040;-85
2022/08/25 09:40:45;;;;;;;10.03;3.33;;;;;;;29.43;38.96;101420.09;5049590;28;20404;-83
2022/08/25 09:43:28;;;;;;;11.05;3.00;;;;;;;29.54;38.90;101417.47;5051938;28;20373;-84
2022/08/25 09:46:01;;;;;;;4.68;3.40;;;;;;;29.68;38.93;101420.41;5048804;28;20398;-83
2022/08/25 09:48:39;;;;;;;5.35;3.10;;;;;;;29.77;38.68;101418.16;5053142;28;20099;-84
2022/08/25 09:51:16;;;;;;;5.78;3.50;;;;;;;29.91;38.51;101423.03;5052481;28;20088;-84
2022/08/25 09:53:54;;;;;;;7.85;3.00;;;;;;;30.11;38.21;101405.53;5049159;28;20032;-84
2022/08/25 09:56:22;;;;;;;8.32;3.75;;;;;;;30.27;37.24;101411.63;5050089;28;20067;-84
2022/08/25 09:58:47;;;;;;;4.07;3.43;;;;;;;30.51;37.46;101399.19;5048276;28;20516;-84
2022/08/25 10:01:17;;;;;;;9.90;3.20;;;;;;;30.66;36.39;101402.91;5048806;28;20381;-84
2022/08/25 10:04:01;;;;;;;9.02;3.13;;;;;;;31.00;38.25;101396.41;5052811;28;20082;-84
2022/08/25 10:06:32;;;;;;;9.07;3.30;;;;;;;31.15;37.27;101402.03;5052634;28;20476;-84
2022/08/25 10:09:02;;;;;;;9.95;3.13;;;;;;;31.22;36.83;101391.84;5014799;28;20064;-84
2022/08/25 10:11:47;;;;;;;9.35;3.45;;;;;;;31.22;35.42;101389.06;5041529;28;20124;-84
2022/08/25 10:14:41;;;;;;;9.88;3.70;;;;;;;31.30;35.12;101384.34;5051212;28;20029;-85
2022/08/25 10:17:26;;;;;;;6.47;3.30;;;;;;;31.27;35.15;101383.13;5034831;28;20073;-85
2022/08/25 10:19:53;;;;;;;7.97;3.37;;;;;;;31.34;35.23;101378.81;5051868;28;20083;-85
2022/08/25 10:22:31;;;;;;;8.57;3.30;;;;;;;31.47;34.13;101371.75;5052866;28;20307;-84
2022/08/25 10:24:57;;;;;;;5.75;3.00;;;;;;;31.60;32.96;101379.69;5051418;28;20021;-84
2022/08/25 10:27:35;;;;;;;5.60;3.22;;;;;;;31.56;33.14;101372.19;5050066;28;20479;-85
2022/08/25 10:30:15;;;;;;;10.55;3.00;;;;;;;31.79;33.38;101365.53;5049640;28;20123;-84
2022/08/25 10:33:08;;;;;;;5.70;2.80;;;;;;;31.88;34.34;101354.09;5040121;28;20048;-84
2022/08/25 10:35:52;;;;;;;8.00;2.80;;;;;;;31.88;34.18;101365.16;5051867;28;20037;-85
2022/08/25 10:38:41;;;;;;;6.43;3.30;;;;;;;31.72;35.07;101360.00;5052405;28;20481;-84
2022/08/25 10:41:27;;;;;;;10.15;3.13;;;;;;;31.82;33.03;101358.44;5049518;28;20025;-85
2022/08/25 10:47:32;;;;;;;147.80;6.70;;;;;;;32.03;32.97;101357.69;5052417;28;20051;-85
2022/08/25 10:50:26;;;;;;;20.00;3.60;;;;;;;31.99;33.46;101349.38;5051473;28;20787;-84
2022/08/25 10:53:03;;;;;;;14.57;2.85;;;;;;;31.94;33.07;101357.28;5047735;28;20040;-85
2022/08/25 10:55:48;;;;;;;90.50;4.90;;;;;;;32.02;32.65;101337.50;5049929;28;20159;-86
2022/08/25 10:58:27;;;;;;;34.22;4.20;;;;;;;32.13;32.37;101345.84;5051907;28;20032;-84
2022/08/25 11:01:13;;;;;;;14.43;3.40;;;;;;;32.14;32.65;101339.06;5051374;28;20068;-83
2022/08/25 11:03:49;;;;;;;6.75;3.30;;;;;;;32.17;32.46;101335.50;5051842;28;20393;-84
2022/08/25 11:06:41;;;;;;;15.00;3.50;;;;;;;32.28;33.09;101323.69;5050779;28;20116;-85
2022/08/25 11:09:14;;;;;;;8.07;3.67;;;;;;;32.31;32.36;101323.69;5030665;28;20052;-85
2022/08/25 11:11:49;;;;;;;9.63;3.95;;;;;;;32.49;32.78;101330.41;5051107;28;20095;-86
2022/08/25 11:14:19;;;;;;;8.87;3.63;;;;;;;32.57;31.08;101324.44;5051854;28;20543;-85
2022/08/25 11:17:12;;;;;;;7.53;3.03;;;;;;;32.91;31.40;101323.19;5050844;28;20702;-86
2022/08/25 11:19:44;;;;;;;8.43;3.28;;;;;;;33.08;29.67;101321.56;5051920;28;20231;-86
2022/08/25 11:22:28;;;;;;;23.80;3.60;;;;;;;33.31;31.38;101321.06;5051337;28;20090;-84
2022/08/25 11:25:09;;;;;;;10.27;3.55;;;;;;;33.59;30.42;101311.03;5045227;28;20025;-83
2022/08/25 11:27:50;;;;;;;6.47;3.53;;;;;;;33.74;30.00;101310.94;5049494;28;20036;-84
2022/08/25 11:30:17;;;;;;;10.23;3.55;;;;;;;33.88;29.14;101302.50;5031057;28;20448;-84
2022/08/25 11:32:48;;;;;;;7.53;3.90;;;;;;;33.96;28.72;101304.03;5031688;28;20037;-83
2022/08/25 11:35:18;;;;;;;32.47;4.15;;;;;;;33.85;29.00;101300.53;5039223;28;20040;-83
2022/08/25 11:38:13;;;;;;;9.20;3.90;;;;;;;33.95;29.93;101288.56;5049295;28;20388;-83
2022/08/25 11:41:16;;;;;;;14.23;3.57;;;;;;;34.16;29.60;101292.34;5050790;28;20108;-83